createdAt,value
2023-10-11T00:00:33.145Z,9.62
2023-10-11T00:03:01.070Z,9.62
2023-10-11T00:05:37.228Z,9.63
2023-10-11T00:08:04.490Z,9.65
2023-10-11T00:10:30.958Z,9.62
2023-10-11T00:13:00.292Z,9.47
2023-10-11T00:15:27.929Z,9.61
2023-10-11T00:17:54.365Z,9.61
2023-10-11T00:20:29.292Z,9.60
2023-10-11T00:22:56.720Z,9.57
2023-10-11T00:25:26.100Z,9.53
2023-10-11T00:27:52.682Z,9.53
2023-10-11T00:30:19.579Z,9.47
2023-10-11T00:32:49.050Z,9.45
2023-10-11T00:35:25.643Z,9.43
2023-10-11T00:37:55.690Z,9.43
2023-10-11T00:40:33.462Z,9.40
2023-10-11T00:42:59.852Z,9.38
2023-10-11T00:45:31.529Z,9.37
2023-10-11T00:47:58.220Z,9.35
2023-10-11T00:50:24.598Z,9.33
2023-10-11T00:52:51.605Z,9.30
2023-10-11T00:55:24.371Z,9.29
2023-10-11T00:57:51.034Z,9.27
2023-10-11T01:00:18.869Z,9.25
2023-10-11T01:02:48.411Z,9.26
2023-10-11T01:05:15.767Z,9.23
2023-10-11T01:07:42.120Z,9.22
2023-10-11T01:10:08.932Z,9.19
2023-10-11T01:12:35.453Z,9.16
2023-10-11T01:15:02.254Z,9.16
2023-10-11T01:17:32.741Z,9.16
2023-10-11T01:20:00.798Z,9.11
2023-10-11T01:22:30.146Z,9.10
2023-10-11T01:24:59.461Z,9.07
2023-10-11T01:27:31.317Z,9.06
2023-10-11T01:29:58.645Z,9.03
2023-10-11T01:32:25.083Z,9.02
2023-10-11T01:34:53.047Z,8.99
2023-10-11T01:37:19.410Z,8.97
2023-10-11T01:39:45.760Z,8.97
2023-10-11T01:42:12.134Z,8.95
2023-10-11T01:44:39.941Z,8.96
2023-10-11T01:47:06.670Z,8.94
2023-10-11T01:49:40.413Z,8.95
2023-10-11T01:52:07.925Z,8.92
2023-10-11T01:54:35.476Z,8.91
2023-10-11T01:57:02.925Z,8.88
2023-10-11T01:59:29.335Z,8.88
2023-10-11T02:02:04.442Z,8.87
2023-10-11T02:04:31.410Z,8.86
2023-10-11T02:06:58.401Z,8.89
2023-10-11T02:09:24.969Z,8.86
2023-10-11T02:11:55.437Z,8.81
2023-10-11T02:14:25.554Z,8.79
2023-10-11T02:16:54.394Z,8.79
2023-10-11T02:19:24.015Z,8.80
2023-10-11T02:21:50.412Z,8.83
2023-10-11T02:24:16.857Z,8.82
2023-10-11T02:31:51.649Z,8.80
2023-10-11T02:34:18.164Z,8.78
2023-10-11T02:36:44.935Z,8.77
2023-10-11T02:39:21.875Z,8.75
2023-10-11T02:41:50.846Z,8.73
2023-10-11T02:44:17.401Z,8.71
2023-10-11T02:46:44.334Z,8.68
2023-10-11T02:49:31.319Z,8.69
2023-10-11T02:51:58.542Z,8.67
2023-10-11T02:54:35.488Z,8.67
2023-10-11T02:57:02.318Z,8.66
2023-10-11T02:59:28.897Z,8.65
2023-10-11T03:02:01.316Z,8.64
2023-10-11T03:04:33.928Z,8.62
2023-10-11T03:07:01.657Z,8.60
2023-10-11T03:09:30.657Z,8.59
2023-10-11T03:11:57.933Z,8.58
2023-10-11T03:14:24.831Z,8.56
2023-10-11T03:16:58.217Z,8.52
2023-10-11T03:19:27.591Z,8.48
2023-10-11T03:21:55.245Z,8.48
2023-10-11T03:24:22.578Z,8.46
2023-10-11T03:26:49.925Z,8.45
2023-10-11T03:29:20.274Z,8.44
2023-10-11T03:31:46.977Z,8.45
2023-10-11T03:34:13.441Z,8.40
2023-10-11T03:36:52.396Z,8.30
2023-10-11T03:39:29.474Z,8.27
2023-10-11T03:42:08.718Z,8.27
2023-10-11T03:44:41.379Z,8.27
2023-10-11T03:47:15.596Z,8.25
2023-10-11T03:49:42.340Z,8.26
2023-10-11T03:52:24.153Z,8.26
2023-10-11T03:55:23.017Z,8.28
2023-10-11T03:57:52.061Z,8.29
2023-10-11T04:00:24.762Z,8.26
2023-10-11T04:03:06.571Z,8.23
2023-10-11T04:05:37.133Z,8.24
2023-10-11T04:08:08.969Z,8.20
2023-10-11T04:10:44.606Z,8.13
2023-10-11T04:13:16.022Z,8.07
2023-10-11T04:15:42.986Z,8.12
2023-10-11T04:18:21.762Z,8.08
2023-10-11T04:21:05.360Z,8.06
2023-10-11T04:23:36.965Z,8.04
2023-10-11T04:26:10.593Z,8.00
2023-10-11T04:28:42.999Z,7.99
2023-10-11T04:31:29.789Z,8.00
2023-10-11T04:33:56.278Z,8.02
2023-10-11T04:36:23.202Z,8.05
2023-10-11T04:38:50.425Z,8.04
2023-10-11T04:41:21.291Z,8.07
2023-10-11T04:44:07.314Z,8.04
2023-10-11T04:46:33.917Z,8.02
2023-10-11T04:49:19.817Z,8.00
2023-10-11T04:51:47.958Z,7.91
2023-10-11T04:54:19.606Z,7.83
2023-10-11T04:56:46.450Z,7.79
2023-10-11T04:59:18.636Z,7.80
2023-10-11T05:01:48.490Z,7.84
2023-10-11T05:04:16.603Z,7.85
2023-10-11T05:06:43.906Z,7.85
2023-10-11T05:09:19.858Z,7.85
2023-10-11T05:11:54.942Z,7.85
2023-10-11T05:14:30.874Z,7.84
2023-10-11T05:17:00.742Z,7.84
2023-10-11T05:19:27.805Z,7.81
2023-10-11T05:22:04.155Z,7.80
2023-10-11T05:24:50.665Z,7.77
2023-10-11T05:27:35.449Z,7.77
2023-10-11T05:30:14.155Z,7.76
2023-10-11T05:33:09.213Z,7.77
2023-10-11T05:35:41.665Z,7.75
2023-10-11T05:38:27.123Z,7.74
2023-10-11T05:41:12.436Z,7.73
2023-10-11T05:43:57.846Z,7.72
2023-10-11T05:46:43.429Z,7.72
2023-10-11T05:49:32.057Z,7.76
2023-10-11T05:51:58.472Z,7.76
2023-10-11T05:54:35.190Z,7.80
2023-10-11T05:57:05.208Z,7.82
2023-10-11T05:59:33.185Z,7.78
2023-10-11T06:02:00.604Z,7.74
2023-10-11T06:04:27.122Z,7.71
2023-10-11T06:06:59.676Z,7.69
2023-10-11T06:09:31.674Z,7.70
2023-10-11T06:11:58.701Z,7.73
2023-10-11T06:14:25.236Z,7.77
2023-10-11T06:16:58.933Z,7.85
2023-10-11T06:19:29.055Z,7.88
2023-10-11T06:21:58.791Z,7.92
2023-10-11T06:24:25.366Z,7.96
2023-10-11T06:26:55.166Z,7.95
2023-10-11T06:29:25.662Z,8.04
2023-10-11T06:32:05.132Z,8.16
2023-10-11T06:34:35.903Z,8.30
2023-10-11T06:37:02.359Z,8.50
2023-10-11T06:39:35.472Z,8.75
2023-10-11T06:42:07.918Z,9.04
2023-10-11T06:44:35.332Z,9.52
2023-10-11T06:47:04.785Z,9.88
2023-10-11T06:49:41.282Z,10.36
2023-10-11T06:52:08.305Z,11.05
2023-10-11T06:54:34.640Z,11.78
2023-10-11T06:57:02.528Z,12.56
2023-10-11T06:59:29.520Z,13.30
2023-10-11T07:01:56.048Z,14.00
2023-10-11T07:04:22.627Z,14.60
2023-10-11T07:06:49.869Z,15.21
2023-10-11T07:09:22.862Z,15.78
2023-10-11T07:11:53.406Z,16.10
2023-10-11T07:14:20.058Z,16.54
2023-10-11T07:16:47.054Z,16.88
2023-10-11T07:19:16.893Z,17.37
2023-10-11T07:21:53.127Z,17.92
2023-10-11T07:24:31.681Z,18.49
2023-10-11T07:27:10.278Z,19.01
2023-10-11T07:29:38.117Z,19.29
2023-10-11T07:32:13.726Z,19.73
2023-10-11T07:38:15.890Z,20.59
2023-10-11T08:31:50.166Z,25.67
2023-10-11T08:34:16.736Z,25.76
2023-10-11T08:36:44.732Z,25.55
2023-10-11T08:39:18.996Z,24.89
2023-10-11T08:41:46.400Z,24.19
2023-10-11T08:44:21.950Z,23.40
2023-10-11T08:46:49.420Z,22.95
2023-10-11T08:49:16.205Z,22.41
2023-10-11T08:51:42.853Z,21.94
2023-10-11T08:54:26.717Z,21.57
2023-10-11T08:56:56.445Z,21.47
2023-10-11T08:59:26.524Z,21.47
2023-10-11T09:01:53.852Z,21.36
2023-10-11T09:04:20.431Z,21.23
2023-10-11T09:06:47.151Z,21.08
2023-10-11T09:09:34.190Z,20.91
2023-10-11T09:12:00.798Z,20.59
2023-10-11T09:14:30.707Z,20.52
2023-10-11T09:16:58.706Z,20.48
2023-10-11T09:19:25.240Z,20.44
2023-10-11T09:22:02.034Z,20.37
2023-10-11T09:24:44.683Z,20.14
2023-10-11T09:27:18.419Z,19.99
2023-10-11T09:29:47.803Z,19.95
2023-10-11T09:32:14.926Z,19.90
2023-10-11T09:34:44.674Z,19.85
2023-10-11T09:37:12.547Z,19.86
2023-10-11T09:39:39.298Z,19.84
2023-10-11T09:42:06.022Z,19.85
2023-10-11T09:44:38.387Z,19.78
2023-10-11T09:47:05.318Z,19.72
2023-10-11T09:49:34.458Z,19.65
2023-10-11T09:52:08.600Z,19.54
2023-10-11T09:54:38.696Z,19.39
2023-10-11T09:57:17.246Z,19.39
2023-10-11T10:00:00.498Z,19.39
2023-10-11T10:02:30.241Z,19.34
2023-10-11T10:04:56.770Z,19.37
2023-10-11T10:07:27.213Z,19.32
2023-10-11T10:09:57.325Z,19.31
2023-10-11T10:12:26.723Z,19.34
2023-10-11T10:15:03.515Z,19.34
2023-10-11T10:17:30.938Z,19.33
2023-10-11T10:20:01.428Z,19.21
2023-10-11T10:22:33.858Z,19.19
2023-10-11T10:25:21.781Z,19.19
2023-10-11T10:27:48.264Z,19.17
2023-10-11T10:30:22.836Z,19.18
2023-10-11T10:33:12.444Z,19.16
2023-10-11T10:35:39.979Z,19.03
2023-10-11T10:38:10.858Z,19.03
2023-10-11T10:40:38.601Z,19.03
2023-10-11T10:43:08.194Z,19.02
2023-10-11T10:45:37.702Z,18.98
2023-10-11T10:48:15.148Z,18.99
2023-10-11T10:50:52.535Z,19.02
2023-10-11T10:53:19.874Z,19.06
2023-10-11T10:55:46.471Z,19.07
2023-10-11T10:58:19.454Z,19.11
2023-10-11T11:00:48.338Z,19.07
2023-10-11T11:03:18.674Z,19.01
2023-10-11T11:05:57.679Z,18.98
2023-10-11T11:08:32.714Z,18.99
2023-10-11T11:11:01.996Z,18.98
2023-10-11T11:13:31.425Z,18.97
2023-10-11T11:15:57.813Z,18.95
2023-10-11T11:18:33.649Z,18.96
2023-10-11T11:21:19.086Z,18.90
2023-10-11T11:23:46.090Z,18.85
2023-10-11T11:26:31.124Z,18.88
2023-10-11T11:29:10.351Z,18.89
2023-10-11T11:32:00.376Z,18.88
2023-10-11T11:34:35.218Z,18.86
2023-10-11T11:39:41.005Z,18.87
2023-10-11T11:42:25.860Z,18.86
2023-10-11T11:44:52.379Z,18.84
2023-10-11T11:47:27.478Z,18.86
2023-10-11T11:49:55.404Z,18.88
2023-10-11T11:52:22.177Z,18.86
2023-10-11T11:54:48.615Z,18.87
2023-10-11T11:57:15.048Z,18.87
2023-10-11T11:59:46.936Z,18.88
2023-10-11T12:02:18.031Z,18.89
2023-10-11T12:04:49.469Z,18.91
2023-10-11T12:07:15.969Z,18.92
2023-10-11T12:09:52.252Z,18.91
2023-10-11T12:12:28.921Z,18.95
2023-10-11T12:14:55.395Z,18.96
2023-10-11T12:17:22.521Z,18.97
2023-10-11T12:19:54.775Z,18.96
2023-10-11T12:22:23.555Z,18.97
2023-10-11T12:24:50.229Z,18.97
2023-10-11T12:27:17.410Z,18.97
2023-10-11T12:29:56.564Z,18.96
2023-10-11T12:32:34.548Z,18.94
2023-10-11T12:35:05.958Z,18.95
2023-10-11T12:37:34.184Z,18.97
2023-10-11T12:40:00.749Z,18.98
2023-10-11T12:42:27.185Z,18.97
2023-10-11T12:44:54.232Z,18.98
2023-10-11T12:47:21.509Z,19.01
2023-10-11T12:49:47.872Z,19.00
2023-10-11T12:52:19.097Z,19.00
2023-10-11T12:54:45.503Z,19.00
2023-10-11T12:57:16.416Z,19.00
2023-10-11T12:59:43.067Z,18.99
2023-10-11T13:02:11.267Z,19.00
2023-10-11T13:04:42.516Z,19.01
2023-10-11T13:07:14.767Z,19.04
2023-10-11T13:09:41.601Z,19.04
2023-10-11T13:12:09.297Z,19.05
2023-10-11T13:14:36.836Z,19.06
2023-10-11T13:17:13.141Z,19.05
2023-10-11T13:19:45.327Z,19.05
2023-10-11T13:22:14.015Z,19.01
2023-10-11T13:24:40.660Z,19.00
2023-10-11T13:27:08.381Z,18.99
2023-10-11T13:29:34.821Z,18.98
2023-10-11T13:32:01.241Z,18.96
2023-10-11T13:34:31.011Z,18.97
2023-10-11T13:37:01.567Z,18.97
2023-10-11T13:39:28.326Z,18.96
2023-10-11T13:41:54.734Z,18.97
2023-10-11T13:44:22.832Z,18.98
2023-10-11T13:46:54.070Z,18.98
2023-10-11T13:49:26.656Z,18.96
2023-10-11T13:51:59.570Z,18.95
2023-10-11T13:54:51.687Z,18.96
2023-10-11T13:57:19.498Z,18.97
2023-10-11T13:59:49.041Z,18.95
2023-10-11T14:02:18.434Z,18.95
2023-10-11T14:04:49.684Z,18.93
2023-10-11T14:07:34.187Z,18.94
2023-10-11T14:10:01.198Z,18.94
2023-10-11T14:12:30.464Z,18.95
2023-10-11T14:14:57.284Z,18.94
2023-10-11T14:17:26.954Z,18.93
2023-10-11T14:19:53.887Z,18.92
2023-10-11T14:22:23.046Z,18.89
2023-10-11T14:24:49.866Z,18.89
2023-10-11T14:27:19.039Z,18.87
2023-10-11T14:29:48.519Z,18.84
2023-10-11T14:32:18.423Z,18.80
2023-10-11T14:34:46.789Z,18.77
2023-10-11T14:37:16.216Z,18.72
2023-10-11T14:39:48.697Z,18.75
2023-10-11T14:42:15.551Z,18.74
2023-10-11T14:44:42.470Z,18.74
2023-10-11T14:47:11.894Z,18.75
2023-10-11T14:49:38.520Z,18.75
2023-10-11T14:52:09.067Z,18.74
2023-10-11T14:54:36.074Z,18.74
2023-10-11T14:57:02.708Z,18.72
2023-10-11T14:59:29.654Z,18.68
2023-10-11T15:01:56.027Z,18.69
2023-10-11T15:04:22.798Z,18.68
2023-10-11T15:06:50.428Z,18.65
2023-10-11T15:09:18.007Z,18.62
2023-10-11T15:11:45.087Z,18.60
2023-10-11T15:14:11.449Z,18.58
2023-10-11T15:16:38.020Z,18.54
2023-10-11T15:19:04.819Z,18.52
2023-10-11T15:21:31.320Z,18.49
2023-10-11T15:23:57.869Z,18.46
2023-10-11T15:26:24.273Z,18.42
2023-10-11T15:28:52.957Z,18.41
2023-10-11T15:31:19.410Z,18.35
2023-10-11T15:33:46.641Z,18.35
2023-10-11T15:36:13.184Z,18.35
2023-10-11T15:38:39.709Z,18.32
2023-10-11T15:41:06.101Z,18.30
2023-10-11T15:43:35.707Z,18.24
2023-10-11T15:46:02.900Z,18.19
2023-10-11T15:48:30.098Z,18.12
2023-10-11T15:51:03.598Z,18.11
2023-10-11T15:53:29.953Z,18.03
2023-10-11T15:55:56.309Z,17.89
2023-10-11T15:58:22.719Z,17.83
2023-10-11T16:00:49.263Z,17.79
2023-10-11T16:03:16.278Z,17.74
2023-10-11T16:05:42.761Z,17.63
2023-10-11T16:08:09.155Z,17.57
2023-10-11T16:10:35.506Z,17.51
2023-10-11T16:13:02.686Z,17.44
2023-10-11T16:15:32.419Z,17.40
2023-10-11T16:17:58.942Z,17.35
2023-10-11T16:20:25.648Z,17.26
2023-10-11T16:22:52.109Z,17.15
2023-10-11T16:25:20.148Z,17.04
2023-10-11T16:27:46.988Z,16.93
2023-10-11T16:30:16.370Z,16.83
2023-10-11T16:32:43.057Z,16.69
2023-10-11T16:35:09.890Z,16.61
2023-10-11T16:37:37.456Z,16.52
2023-10-11T16:40:06.900Z,16.38
2023-10-11T16:42:36.453Z,16.28
2023-10-11T16:45:02.869Z,16.18
2023-10-11T16:47:31.819Z,16.08
2023-10-11T16:50:01.232Z,16.00
2023-10-11T16:52:27.845Z,15.92
2023-10-11T16:54:57.721Z,15.79
2023-10-11T16:57:24.464Z,15.67
2023-10-11T16:59:52.609Z,15.56
2023-10-11T17:02:19.077Z,15.42
2023-10-11T17:04:49.628Z,15.36
2023-10-11T17:07:16.917Z,15.27
2023-10-11T17:09:43.398Z,15.17
2023-10-11T17:12:11.352Z,15.12
2023-10-11T17:14:40.273Z,15.06
2023-10-11T17:17:06.896Z,14.97
2023-10-11T17:19:37.272Z,14.87
2023-10-11T17:22:05.730Z,14.79
2023-10-11T17:24:32.466Z,14.66
2023-10-11T17:26:59.003Z,14.60
2023-10-11T17:29:25.426Z,14.55
2023-10-11T17:31:52.151Z,14.48
2023-10-11T17:34:20.389Z,14.39
2023-10-11T17:36:47.904Z,14.34
2023-10-11T17:39:15.273Z,14.27
2023-10-11T17:41:42.980Z,14.22
2023-10-11T17:44:09.387Z,14.18
2023-10-11T17:46:35.806Z,14.12
2023-10-11T17:49:02.578Z,14.06
2023-10-11T17:51:29.297Z,14.01
2023-10-11T17:53:55.696Z,13.94
2023-10-11T17:56:23.284Z,13.85
2023-10-11T17:58:50.089Z,13.83
2023-10-11T18:01:20.007Z,13.78
2023-10-11T18:03:46.717Z,13.72
2023-10-11T18:06:13.310Z,13.69
2023-10-11T18:08:39.985Z,13.60
2023-10-11T18:11:07.307Z,13.50
2023-10-11T18:13:34.565Z,13.44
2023-10-11T18:16:01.166Z,13.37
2023-10-11T18:18:27.851Z,13.28
2023-10-11T18:20:54.497Z,13.21
2023-10-11T18:23:22.754Z,13.13
2023-10-11T18:25:49.585Z,13.06
2023-10-11T18:28:16.099Z,13.00
2023-10-11T18:30:42.624Z,12.95
2023-10-11T18:33:09.592Z,12.92
2023-10-11T18:35:46.378Z,12.86
2023-10-11T18:38:18.019Z,12.79
2023-10-11T18:40:46.976Z,12.75
2023-10-11T18:43:13.842Z,12.65
2023-10-11T18:45:40.498Z,12.57
2023-10-11T18:48:07.393Z,12.53
2023-10-11T18:50:34.027Z,12.47
2023-10-11T18:53:04.510Z,12.40
2023-10-11T18:55:30.987Z,12.35
2023-10-11T18:57:57.414Z,12.32
2023-10-11T19:00:24.832Z,12.29
2023-10-11T19:02:57.799Z,12.24
2023-10-11T19:05:24.313Z,12.20
2023-10-11T19:07:58.521Z,12.16
2023-10-11T19:10:29.977Z,12.12
2023-10-11T19:12:58.894Z,12.05
2023-10-11T19:15:25.781Z,12.03
2023-10-11T19:17:52.562Z,11.97
2023-10-11T19:20:19.529Z,11.92
2023-10-11T19:22:49.782Z,11.88
2023-10-11T19:25:17.741Z,11.85
2023-10-11T19:27:45.345Z,11.82
2023-10-11T19:30:18.354Z,11.79
2023-10-11T19:32:45.608Z,11.75
2023-10-11T19:35:23.529Z,11.72
2023-10-11T19:37:51.057Z,11.66
2023-10-11T19:40:20.917Z,11.62
2023-10-11T19:42:47.692Z,11.57
2023-10-11T19:45:17.660Z,11.54
2023-10-11T19:47:44.766Z,11.50
2023-10-11T19:50:14.996Z,11.46
2023-10-11T19:52:44.948Z,11.42
2023-10-11T19:58:01.396Z,11.32
2023-10-11T20:00:28.743Z,11.29
2023-10-11T20:02:57.632Z,11.24
2023-10-11T20:05:25.771Z,11.21
2023-10-11T20:07:53.657Z,11.19
2023-10-11T20:10:20.518Z,11.16
2023-10-11T20:12:47.701Z,11.08
2023-10-11T20:15:15.765Z,11.04
2023-10-11T20:17:56.863Z,11.01
2023-10-11T20:20:23.648Z,10.96
2023-10-11T20:22:50.900Z,10.94
2023-10-11T20:25:20.532Z,10.91
2023-10-11T20:27:49.188Z,10.89
2023-10-11T20:30:19.388Z,10.86
2023-10-11T20:32:46.320Z,10.82
2023-10-11T20:35:14.256Z,10.80
2023-10-11T20:37:41.638Z,10.78
2023-10-11T20:40:38.086Z,10.74
2023-10-11T20:43:04.509Z,10.68
2023-10-11T20:45:30.979Z,10.65
2023-10-11T20:47:57.666Z,10.64
2023-10-11T20:50:48.931Z,10.64
2023-10-11T20:53:15.436Z,10.62
2023-10-11T20:55:46.341Z,10.57
2023-10-11T20:58:14.706Z,10.55
2023-10-11T21:00:50.683Z,10.54
2023-10-11T21:05:58.809Z,10.53
2023-10-11T21:08:33.152Z,10.50
2023-10-11T21:10:59.647Z,10.50
2023-10-11T21:16:08.724Z,10.49
2023-10-11T21:18:45.581Z,10.49
2023-10-11T21:21:27.669Z,10.51
2023-10-11T21:23:55.217Z,10.49
2023-10-11T21:26:24.486Z,10.50
2023-10-11T21:28:55.201Z,10.48
2023-10-11T21:31:22.095Z,10.41
2023-10-11T21:33:48.619Z,10.34
2023-10-11T21:36:16.967Z,10.26
2023-10-11T21:38:45.831Z,10.24
2023-10-11T21:41:15.160Z,10.23
2023-10-11T21:43:41.598Z,10.23
2023-10-11T21:46:11.771Z,10.22
2023-10-11T21:48:39.667Z,10.15
2023-10-11T21:51:10.648Z,10.12
2023-10-11T21:53:36.992Z,10.11
2023-10-11T21:56:03.365Z,10.10
2023-10-11T21:58:31.287Z,10.12
2023-10-11T22:01:22.308Z,10.10
2023-10-11T22:03:49.718Z,10.11
2023-10-11T22:06:19.257Z,10.11
2023-10-11T22:08:49.461Z,10.09
2023-10-11T22:11:17.664Z,10.05
2023-10-11T22:13:45.475Z,10.07
2023-10-11T22:16:12.638Z,10.07
2023-10-11T22:18:41.515Z,10.05
2023-10-11T22:21:08.534Z,10.00
2023-10-11T22:23:34.925Z,9.98
2023-10-11T22:26:01.363Z,9.96
2023-10-11T22:28:27.750Z,9.90
2023-10-11T22:30:54.165Z,9.79
2023-10-11T22:33:23.257Z,9.73
2023-10-11T22:35:52.189Z,9.72
2023-10-11T22:38:20.688Z,9.70
2023-10-11T22:40:47.019Z,9.70
2023-10-11T22:43:27.728Z,9.66
2023-10-11T22:45:57.131Z,9.61
2023-10-11T22:48:24.109Z,9.63
2023-10-11T22:50:52.854Z,9.65
2023-10-11T22:53:19.330Z,9.65
2023-10-11T22:55:45.749Z,9.64
2023-10-11T22:58:17.245Z,9.61
2023-10-11T23:00:43.654Z,9.61
2023-10-11T23:03:13.444Z,9.60
2023-10-11T23:05:41.771Z,9.62
2023-10-11T23:08:08.211Z,9.58
2023-10-11T23:10:43.644Z,9.58
2023-10-11T23:13:10.049Z,9.56
2023-10-11T23:15:42.989Z,9.54
2023-10-11T23:18:15.796Z,9.56
2023-10-11T23:20:57.679Z,9.44
2023-10-11T23:23:30.532Z,9.35
2023-10-11T23:26:05.790Z,9.30
2023-10-11T23:28:36.269Z,9.27
2023-10-11T23:31:09.241Z,9.25
2023-10-11T23:33:49.273Z,9.24
2023-10-11T23:36:15.990Z,9.22
2023-10-11T23:38:51.347Z,9.21
2023-10-11T23:41:37.238Z,9.20
2023-10-11T23:44:23.210Z,9.21
2023-10-11T23:46:57.487Z,9.21
2023-10-11T23:52:06.644Z,9.22
2023-10-11T23:54:33.733Z,9.23
2023-10-11T23:57:00.167Z,9.24
2023-10-11T23:59:32.258Z,9.23
